Time;durP1;ratioP1;P1;durP2;ratioP2;P2;SDS_P1;SDS_P2;PMS_P1;PMS_P2;Temp;Humidity;BMP_temperature;BMP_pressure;BME280_temperature;BME280_humidity;BME280_pressure;Samples;Min_cycle;Max_cycle;Signal;HPM_P1;HPM_P2
2022/02/27 00:01:50;;;;;;;10.10;5.28;;;;;;;-1.74;100.00;97092.44;5050933;28;24458;-76
2022/02/27 00:04:17;;;;;;;9.65;5.25;;;;;;;-1.67;100.00;97090.75;5050951;28;24502;-76
2022/02/27 00:06:43;;;;;;;11.73;4.85;;;;;;;-1.66;100.00;97091.66;5050788;28;24426;-77
2022/02/27 00:09:10;;;;;;;11.30;5.07;;;;;;;-1.65;100.00;97080.63;5051297;28;24462;-76
2022/02/27 00:11:41;;;;;;;11.23;4.90;;;;;;;-1.60;100.00;97081.50;5054950;28;24972;-76
2022/02/27 00:14:08;;;;;;;10.93;5.07;;;;;;;-1.55;100.00;97088.31;5050873;28;24427;-76
2022/02/27 00:16:34;;;;;;;12.32;4.63;;;;;;;-1.49;100.00;97087.50;5050597;28;24488;-75
2022/02/27 00:19:02;;;;;;;17.15;5.53;;;;;;;-1.32;100.00;97083.34;5064249;23;24855;-74
2022/02/27 00:21:28;;;;;;;12.85;5.07;;;;;;;-1.26;100.00;97080.84;5050578;28;24428;-74
2022/02/27 00:23:55;;;;;;;10.65;4.90;;;;;;;-1.15;100.00;97072.41;5050733;28;24461;-74
2022/02/27 00:26:21;;;;;;;13.18;4.88;;;;;;;-1.11;100.00;97076.66;5050909;28;24445;-74
2022/02/27 00:28:49;;;;;;;11.23;4.80;;;;;;;-1.08;100.00;97072.41;5057523;28;24422;-74
2022/02/27 00:31:15;;;;;;;11.50;4.55;;;;;;;-1.00;100.00;97072.47;5070799;28;24446;-74
2022/02/27 00:33:42;;;;;;;11.60;4.85;;;;;;;-0.96;100.00;97061.47;5070629;28;25120;-74
2022/02/27 00:36:09;;;;;;;11.82;4.40;;;;;;;-1.05;100.00;97066.50;5070707;28;24426;-74
2022/02/27 00:38:36;;;;;;;9.40;4.33;;;;;;;-1.08;100.00;97067.34;5070469;28;24426;-74
2022/02/27 00:41:03;;;;;;;12.07;4.82;;;;;;;-1.16;100.00;97071.56;5070725;28;24509;-74
2022/02/27 00:43:29;;;;;;;9.82;4.47;;;;;;;-1.27;100.00;97071.50;5070528;28;24464;-75
2022/02/27 00:45:57;;;;;;;11.63;5.07;;;;;;;-1.47;100.00;97065.50;5070581;28;24438;-74
2022/02/27 00:48:23;;;;;;;15.35;6.13;;;;;;;-1.53;100.00;97075.63;5070407;28;24429;-74
2022/02/27 00:50:50;;;;;;;11.77;5.32;;;;;;;-1.51;100.00;97074.78;5070551;28;24496;-74
2022/02/27 00:53:16;;;;;;;8.68;5.00;;;;;;;-1.37;100.00;97087.56;5070898;28;24415;-74
2022/02/27 00:55:43;;;;;;;11.77;4.18;;;;;;;-1.40;100.00;97079.09;5070361;28;24423;-74
2022/02/27 00:58:09;;;;;;;7.63;3.55;;;;;;;-1.51;100.00;97081.56;5069955;28;24418;-74
2022/02/27 01:00:36;;;;;;;17.23;4.13;;;;;;;-1.53;100.00;97083.22;5070618;28;24415;-74
2022/02/27 01:03:03;;;;;;;7.95;3.83;;;;;;;-1.56;100.00;97083.22;5070728;28;24431;-74
2022/02/27 01:05:30;;;;;;;7.28;3.72;;;;;;;-1.36;100.00;97081.63;5067614;28;24435;-74
2022/02/27 01:07:57;;;;;;;5.85;3.00;;;;;;;-1.42;100.00;97075.66;5063553;28;24437;-74
2022/02/27 01:10:23;;;;;;;11.95;3.42;;;;;;;-1.52;100.00;97088.34;5069017;28;25038;-73
2022/02/27 01:12:49;;;;;;;9.80;3.65;;;;;;;-1.46;100.00;97080.72;5070062;28;24461;-74
2022/02/27 01:15:17;;;;;;;13.80;4.30;;;;;;;-1.06;100.00;97075.00;5070087;28;24430;-74
2022/02/27 01:17:43;;;;;;;10.48;3.63;;;;;;;-1.12;100.00;97072.41;5069899;28;25049;-74
2022/02/27 01:20:12;;;;;;;9.48;3.90;;;;;;;-0.98;100.00;97073.31;5070051;28;24834;-74
2022/02/27 01:22:39;;;;;;;13.48;4.78;;;;;;;-1.00;100.00;97075.88;5069816;28;24419;-74
2022/02/27 01:25:07;;;;;;;8.70;3.50;;;;;;;-1.07;100.00;97068.22;5069945;28;25045;-74
2022/02/27 01:27:34;;;;;;;12.52;3.70;;;;;;;-1.20;100.00;97076.63;5070151;28;24472;-74
2022/02/27 01:30:00;;;;;;;9.18;4.22;;;;;;;-1.39;100.00;97068.06;5070372;28;24433;-74
2022/02/27 01:32:27;;;;;;;15.20;4.15;;;;;;;-1.25;100.00;97068.97;5072377;28;24465;-74
2022/02/27 01:34:53;;;;;;;16.40;3.97;;;;;;;-1.20;100.00;97059.66;5073816;28;24427;-74
2022/02/27 01:37:21;;;;;;;15.00;4.32;;;;;;;-1.33;100.00;97058.78;5073697;28;24519;-74
2022/02/27 01:39:48;;;;;;;16.55;4.60;;;;;;;-1.28;100.00;97062.19;5073794;28;24426;-74
2022/02/27 01:42:15;;;;;;;14.55;4.35;;;;;;;-1.44;100.00;97060.44;5073626;28;24437;-73
2022/02/27 01:44:43;;;;;;;8.77;4.25;;;;;;;-1.50;100.00;97051.06;5073302;28;24772;-74
2022/02/27 01:47:12;;;;;;;12.38;6.57;;;;;;;-1.65;100.00;97051.00;5073080;28;24496;-74
2022/02/27 01:49:39;;;;;;;18.13;7.25;;;;;;;-1.68;100.00;97052.66;5072815;28;24987;-73
2022/02/27 01:52:07;;;;;;;14.98;6.75;;;;;;;-1.76;100.00;97048.38;5073376;28;24975;-74
2022/02/27 01:54:35;;;;;;;16.25;7.47;;;;;;;-1.85;100.00;97048.34;5073446;28;24429;-74
2022/02/27 01:57:02;;;;;;;14.10;6.63;;;;;;;-1.84;100.00;97039.88;5073559;28;24469;-74
2022/02/27 01:59:29;;;;;;;15.37;5.57;;;;;;;-1.77;100.00;97036.53;5073213;28;24776;-74
2022/02/27 02:01:56;;;;;;;13.80;6.38;;;;;;;-1.64;100.00;97037.44;5073394;28;25013;-74
2022/02/27 02:04:22;;;;;;;28.60;9.65;;;;;;;-1.81;100.00;97039.06;5073305;28;24425;-74
2022/02/27 02:06:49;;;;;;;21.67;8.95;;;;;;;-1.84;100.00;97037.34;5073368;28;24421;-73
2022/02/27 02:09:15;;;;;;;19.60;8.68;;;;;;;-1.95;100.00;97033.88;5073265;28;24502;-73
2022/02/27 02:11:43;;;;;;;16.40;6.65;;;;;;;-1.99;100.00;97035.56;5073352;28;24445;-74
2022/02/27 02:14:10;;;;;;;17.02;6.50;;;;;;;-2.01;100.00;97042.31;5073590;28;24480;-74
2022/02/27 02:16:40;;;;;;;27.13;7.97;;;;;;;-2.06;100.00;97035.50;5073423;28;24430;-74
2022/02/27 02:19:07;;;;;;;17.65;6.30;;;;;;;-2.01;100.00;97038.91;5072366;28;24438;-74
2022/02/27 02:21:39;;;;;;;17.17;6.60;;;;;;;-2.05;100.00;97037.19;5072259;28;24454;-74
2022/02/27 02:24:05;;;;;;;10.77;4.85;;;;;;;-1.94;100.00;97040.66;5072536;28;24509;-74
2022/02/27 02:26:35;;;;;;;7.32;4.40;;;;;;;-1.87;100.00;97033.94;5072222;28;24426;-74
2022/02/27 02:29:01;;;;;;;12.80;4.35;;;;;;;-1.73;100.00;97030.63;5071807;28;24426;-73
2022/02/27 02:31:28;;;;;;;15.52;4.53;;;;;;;-1.64;100.00;97032.38;5072356;28;24453;-74
2022/02/27 02:33:54;;;;;;;10.10;3.95;;;;;;;-1.53;100.00;97029.88;5071950;28;24480;-74
2022/02/27 02:36:21;;;;;;;25.55;3.92;;;;;;;-1.53;100.00;97023.09;5072115;28;24431;-73
2022/02/27 02:38:49;;;;;;;11.93;3.80;;;;;;;-1.49;100.00;97024.81;5071983;28;24956;-73
2022/02/27 02:41:16;;;;;;;7.40;3.50;;;;;;;-1.42;100.00;97024.84;5072030;28;24417;-74
2022/02/27 02:43:42;;;;;;;9.87;3.63;;;;;;;-1.34;100.00;97018.09;5070773;28;24575;-74
2022/02/27 02:46:08;;;;;;;12.63;4.35;;;;;;;-1.42;100.00;97022.31;5071852;28;24464;-74
2022/02/27 02:48:35;;;;;;;7.93;4.60;;;;;;;-1.57;100.00;97013.78;5071530;28;24484;-74
2022/02/27 02:51:01;;;;;;;9.10;5.28;;;;;;;-1.74;100.00;97011.16;5071853;28;24446;-73
2022/02/27 02:53:34;;;;;;;13.82;5.78;;;;;;;-1.82;100.00;97005.16;5071987;28;24425;-73
2022/02/27 02:56:05;;;;;;;11.77;6.33;;;;;;;-1.98;100.00;97003.41;5071729;28;24521;-74
2022/02/27 02:58:31;;;;;;;13.30;6.18;;;;;;;-1.93;100.00;96998.34;5071225;28;24887;-74
2022/02/27 03:00:58;;;;;;;12.82;6.13;;;;;;;-1.98;100.00;97003.41;5071832;28;24422;-73
2022/02/27 03:03:25;;;;;;;18.65;6.00;;;;;;;-2.09;100.00;97007.56;5071790;28;24482;-74
2022/02/27 03:05:51;;;;;;;10.70;5.15;;;;;;;-2.10;100.00;97008.41;5071449;28;24480;-74
2022/02/27 03:08:18;;;;;;;11.80;5.45;;;;;;;-2.08;100.00;97006.72;5071427;28;24426;-74
2022/02/27 03:10:44;;;;;;;12.00;6.55;;;;;;;-2.09;100.00;97012.63;5071284;28;24434;-74
2022/02/27 03:13:12;;;;;;;8.18;5.18;;;;;;;-2.12;100.00;97007.53;5071313;28;24411;-73
2022/02/27 03:15:39;;;;;;;17.90;6.93;;;;;;;-2.24;100.00;97011.69;5071084;28;24961;-74
2022/02/27 03:18:06;;;;;;;10.43;6.75;;;;;;;-2.59;100.00;97000.44;5071164;28;24422;-73
2022/02/27 03:20:32;;;;;;;10.40;6.93;;;;;;;-2.64;100.00;96999.53;5070957;28;24415;-73
2022/02/27 03:23:00;;;;;;;11.82;6.43;;;;;;;-2.59;100.00;97000.44;5071087;28;24987;-74
2022/02/27 03:25:28;;;;;;;17.13;6.47;;;;;;;-2.65;100.00;96995.31;5071412;28;24461;-75
2022/02/27 03:27:54;;;;;;;14.53;6.33;;;;;;;-2.55;100.00;97004.69;5070917;28;24422;-73
2022/02/27 03:30:22;;;;;;;10.73;5.88;;;;;;;-2.54;100.00;96996.25;5070945;28;24422;-74
2022/02/27 03:32:49;;;;;;;12.40;6.25;;;;;;;-2.54;100.00;97007.25;5071001;28;24418;-73
2022/02/27 03:35:16;;;;;;;10.50;5.90;;;;;;;-2.72;100.00;97007.09;5070883;28;24612;-74
2022/02/27 03:37:42;;;;;;;9.90;5.43;;;;;;;-2.63;100.00;97001.22;5070944;28;24518;-73
2022/02/27 03:40:09;;;;;;;10.63;5.97;;;;;;;-2.79;100.00;96997.72;5069432;28;25014;-73
2022/02/27 03:42:36;;;;;;;13.70;4.67;;;;;;;-2.58;100.00;96994.53;5065511;28;24430;-74
2022/02/27 03:45:05;;;;;;;8.88;4.10;;;;;;;-2.49;100.00;96997.13;5070714;28;24457;-73
2022/02/27 03:47:33;;;;;;;9.02;5.00;;;;;;;-2.42;100.00;96998.03;5070624;28;24458;-74
2022/02/27 03:49:59;;;;;;;8.95;5.00;;;;;;;-2.46;100.00;97002.22;5070734;28;24423;-74
2022/02/27 03:52:26;;;;;;;9.53;5.27;;;;;;;-2.51;100.00;97001.34;5070760;28;24451;-73
2022/02/27 03:54:52;;;;;;;10.23;4.95;;;;;;;-2.52;100.00;97002.16;5070117;28;24451;-74
2022/02/27 03:57:19;;;;;;;9.82;5.25;;;;;;;-2.56;100.00;97005.50;5070171;28;24417;-73
2022/02/27 03:59:45;;;;;;;8.07;5.10;;;;;;;-2.44;100.00;97010.72;5070576;28;24429;-73
2022/02/27 04:02:12;;;;;;;13.80;3.92;;;;;;;-2.44;100.00;97003.94;5070641;28;24472;-73
2022/02/27 04:04:40;;;;;;;6.90;3.30;;;;;;;-2.33;100.00;97006.56;5070599;28;24853;-73
2022/02/27 04:07:06;;;;;;;9.05;3.88;;;;;;;-2.47;100.00;97003.06;5070090;28;24476;-74
2022/02/27 04:09:33;;;;;;;11.20;4.22;;;;;;;-2.49;100.00;97005.56;5070200;28;24480;-73
2022/02/27 04:11:59;;;;;;;14.30;4.15;;;;;;;-2.42;100.00;97006.47;5070512;28;24645;-73
2022/02/27 04:14:25;;;;;;;15.33;4.33;;;;;;;-2.32;100.00;97005.72;5070587;28;24422;-73
2022/02/27 04:16:52;;;;;;;9.55;3.70;;;;;;;-2.26;100.00;97004.94;5070384;28;24427;-73
2022/02/27 04:19:19;;;;;;;9.27;3.53;;;;;;;-2.08;100.00;97011.78;5069811;28;24433;-74
2022/02/27 04:21:47;;;;;;;7.93;3.33;;;;;;;-2.20;100.00;97015.09;5070253;28;24434;-73
2022/02/27 04:24:14;;;;;;;8.85;3.20;;;;;;;-2.47;100.00;97014.06;5070117;28;24419;-73
2022/02/27 04:26:40;;;;;;;6.10;3.13;;;;;;;-2.55;100.00;97002.16;5070362;28;24423;-73
2022/02/27 04:29:07;;;;;;;5.28;3.17;;;;;;;-2.69;100.00;97014.72;5069889;28;24487;-74
2022/02/27 04:31:33;;;;;;;7.68;3.35;;;;;;;-2.45;100.00;97017.47;5070168;28;24488;-74
2022/02/27 04:33:59;;;;;;;9.93;3.13;;;;;;;-2.58;100.00;97015.66;5070587;28;24418;-73
2022/02/27 04:36:26;;;;;;;10.67;3.80;;;;;;;-2.58;100.00;97024.97;5070034;28;24418;-74
2022/02/27 04:38:54;;;;;;;8.27;3.50;;;;;;;-2.58;100.00;97017.34;5069872;28;24430;-73
2022/02/27 04:41:20;;;;;;;6.82;3.45;;;;;;;-2.59;100.00;97015.66;5070170;28;24757;-73
2022/02/27 04:43:48;;;;;;;9.85;3.70;;;;;;;-2.49;100.00;97010.66;5070173;28;24415;-74
2022/02/27 04:46:15;;;;;;;9.53;3.77;;;;;;;-2.56;100.00;97013.13;5070176;28;25079;-73
2022/02/27 04:48:41;;;;;;;6.95;3.30;;;;;;;-2.49;100.00;97007.25;5069810;28;24472;-73
2022/02/27 04:51:08;;;;;;;9.18;4.10;;;;;;;-2.41;100.00;97012.41;5069914;28;24458;-73
2022/02/27 04:53:35;;;;;;;8.77;3.63;;;;;;;-2.40;100.00;97011.59;5070276;28;24422;-74
2022/02/27 04:56:04;;;;;;;9.32;4.35;;;;;;;-2.54;100.00;97003.84;5069920;28;24422;-73
2022/02/27 04:58:30;;;;;;;8.43;3.70;;;;;;;-2.49;100.00;97004.72;5069667;28;24556;-73
2022/02/27 05:00:57;;;;;;;7.32;3.25;;;;;;;-2.55;100.00;97015.69;5069935;28;24468;-73
2022/02/27 05:03:23;;;;;;;9.07;4.03;;;;;;;-2.52;100.00;97015.72;5069814;28;24430;-73
2022/02/27 05:05:50;;;;;;;9.73;4.07;;;;;;;-2.56;100.00;97020.72;5069698;28;24939;-73
2022/02/27 05:08:16;;;;;;;11.77;3.78;;;;;;;-2.59;100.00;97015.66;5072540;28;24418;-73
2022/02/27 05:10:43;;;;;;;5.93;3.13;;;;;;;-2.60;100.00;97014.78;5073710;28;24464;-73
2022/02/27 05:13:10;;;;;;;14.50;4.17;;;;;;;-2.62;100.00;97018.16;5073677;28;24475;-73
2022/02/27 05:15:37;;;;;;;6.40;3.45;;;;;;;-2.72;100.00;97020.59;5073438;28;24964;-73
2022/02/27 05:18:04;;;;;;;12.15;4.13;;;;;;;-2.82;100.00;97018.81;5073390;28;24460;-73
2022/02/27 05:20:30;;;;;;;13.70;4.28;;;;;;;-2.80;100.00;97018.84;5073031;28;24422;-73
2022/02/27 05:22:57;;;;;;;9.93;4.30;;;;;;;-2.81;100.00;97023.06;5073270;28;24928;-73
2022/02/27 05:25:24;;;;;;;10.35;4.05;;;;;;;-2.82;100.00;97021.34;5073074;28;24422;-73
2022/02/27 05:27:52;;;;;;;10.23;3.90;;;;;;;-2.86;100.00;97028.91;5073223;28;24422;-73
2022/02/27 05:30:21;;;;;;;6.30;3.85;;;;;;;-3.00;100.00;97021.19;5073173;28;24430;-74
2022/02/27 05:32:48;;;;;;;7.18;3.97;;;;;;;-2.95;100.00;97029.69;5072938;28;24450;-74
2022/02/27 05:35:15;;;;;;;9.60;3.92;;;;;;;-3.09;100.00;97029.53;5072884;28;24415;-73
2022/02/27 05:37:42;;;;;;;8.70;4.65;;;;;;;-3.21;100.00;97019.28;5073011;28;24430;-74
2022/02/27 05:40:10;;;;;;;13.02;5.28;;;;;;;-3.41;100.00;97032.56;5073207;28;24469;-74
2022/02/27 05:42:37;;;;;;;9.98;4.70;;;;;;;-3.54;100.00;97038.31;5073058;28;24484;-74
2022/02/27 05:45:04;;;;;;;8.57;3.83;;;;;;;-3.39;100.00;97045.25;5072968;28;24505;-70
2022/02/27 05:47:32;;;;;;;8.25;4.57;;;;;;;-3.29;100.00;97041.16;5072691;28;25025;-76
2022/02/27 05:49:59;;;;;;;8.27;4.50;;;;;;;-3.24;100.00;97034.44;5073193;28;24426;-75
2022/02/27 05:52:25;;;;;;;7.90;4.45;;;;;;;-3.20;100.00;97042.09;5072677;28;24443;-75
2022/02/27 05:54:52;;;;;;;9.00;4.38;;;;;;;-3.15;100.00;97037.09;5072967;28;24798;-74
2022/02/27 05:57:18;;;;;;;11.73;5.30;;;;;;;-3.12;100.00;97041.31;5072558;28;24461;-74
2022/02/27 05:59:45;;;;;;;9.07;4.57;;;;;;;-3.05;100.00;97043.94;5072613;28;24476;-74
2022/02/27 06:02:11;;;;;;;7.28;4.13;;;;;;;-3.05;100.00;97043.09;5071901;28;24477;-75
2022/02/27 06:04:39;;;;;;;15.05;4.95;;;;;;;-2.79;100.00;97045.88;5071816;28;24484;-75
2022/02/27 06:07:05;;;;;;;11.03;4.30;;;;;;;-2.66;100.00;97049.41;5070339;28;24567;-74
2022/02/27 06:09:32;;;;;;;16.08;4.70;;;;;;;-2.63;100.00;97052.81;5070802;28;24514;-74
2022/02/27 06:11:58;;;;;;;8.15;3.97;;;;;;;-2.57;100.00;97057.09;5071128;28;24496;-74
2022/02/27 06:14:24;;;;;;;7.53;4.35;;;;;;;-2.55;100.00;97052.91;5071913;28;24835;-74
2022/02/27 06:16:51;;;;;;;8.57;4.65;;;;;;;-2.51;100.00;97065.59;5071698;28;24410;-75
2022/02/27 06:19:17;;;;;;;9.52;4.32;;;;;;;-2.47;100.00;97058.88;5074154;23;24479;-73
2022/02/27 06:21:45;;;;;;;12.48;4.80;;;;;;;-2.59;100.00;97066.38;5032765;28;24983;-73
2022/02/27 06:24:12;;;;;;;8.27;4.47;;;;;;;-2.73;100.00;97067.09;5032816;28;24674;-73
2022/02/27 06:26:38;;;;;;;5.55;3.38;;;;;;;-2.80;100.00;97067.84;5032522;28;24527;-73
2022/02/27 06:29:05;;;;;;;6.50;3.22;;;;;;;-2.91;100.00;97069.44;5037814;28;24481;-73
2022/02/27 06:31:31;;;;;;;7.30;3.50;;;;;;;-2.93;100.00;97073.63;5052213;28;24947;-73
2022/02/27 06:33:58;;;;;;;8.55;3.47;;;;;;;-2.90;100.00;97067.75;5052610;28;24967;-73
2022/02/27 06:36:24;;;;;;;9.75;4.72;;;;;;;-2.83;100.00;97074.59;5052421;28;24427;-73
2022/02/27 06:38:52;;;;;;;10.30;4.60;;;;;;;-2.59;100.00;97069.78;5052544;28;24423;-73
2022/02/27 06:41:20;;;;;;;7.43;4.20;;;;;;;-2.51;100.00;97078.28;5052446;28;24433;-73
2022/02/27 06:43:47;;;;;;;5.78;3.28;;;;;;;-2.32;100.00;97079.31;5052455;28;24419;-73
2022/02/27 06:46:13;;;;;;;12.77;4.07;;;;;;;-2.27;100.00;97080.19;5052336;28;24489;-73
2022/02/27 06:48:40;;;;;;;8.55;3.67;;;;;;;-2.27;100.00;97077.63;5052043;28;24473;-73
2022/02/27 06:51:06;;;;;;;6.40;3.45;;;;;;;-2.27;100.00;97081.88;5052415;28;24419;-74
2022/02/27 06:53:33;;;;;;;8.55;4.13;;;;;;;-2.33;100.00;97081.84;5052369;28;24443;-73
2022/02/27 06:56:01;;;;;;;7.53;3.63;;;;;;;-2.15;100.00;97079.47;5052326;28;24824;-73
2022/02/27 06:58:28;;;;;;;9.32;3.85;;;;;;;-2.03;100.00;97077.00;5051684;28;24435;-73
2022/02/27 07:00:54;;;;;;;9.02;3.97;;;;;;;-1.89;100.00;97092.34;5052361;28;24427;-73
2022/02/27 07:03:21;;;;;;;13.60;4.13;;;;;;;-1.77;100.00;97094.13;5052459;28;24469;-73
2022/02/27 07:05:47;;;;;;;10.32;4.32;;;;;;;-1.64;100.00;97092.50;5052067;28;24480;-74
2022/02/27 07:08:14;;;;;;;8.32;3.95;;;;;;;-1.50;100.00;97091.72;5052081;28;24435;-74
2022/02/27 07:10:40;;;;;;;10.10;3.85;;;;;;;-1.36;100.00;97084.19;5052100;28;24454;-74
2022/02/27 07:13:08;;;;;;;8.63;3.83;;;;;;;-1.26;100.00;97085.94;5052040;28;24439;-74
2022/02/27 07:15:34;;;;;;;9.48;4.90;;;;;;;-1.05;100.00;97086.84;5052425;28;24422;-74
2022/02/27 07:18:02;;;;;;;8.20;4.25;;;;;;;-0.84;100.00;97096.25;5051731;28;24431;-74
2022/02/27 07:20:30;;;;;;;8.50;5.13;;;;;;;-0.64;100.00;97089.50;5051451;28;24423;-74
2022/02/27 07:22:56;;;;;;;9.03;4.90;;;;;;;-0.46;100.00;97098.03;5052206;28;24492;-74
2022/02/27 07:25:23;;;;;;;11.25;4.97;;;;;;;-0.32;100.00;97099.75;5051958;28;24415;-74
2022/02/27 07:27:49;;;;;;;10.30;5.15;;;;;;;-0.06;100.00;97104.88;5051871;28;24968;-74
2022/02/27 07:30:17;;;;;;;8.95;5.00;;;;;;;0.08;100.00;97101.47;5051339;28;24419;-74
2022/02/27 07:32:44;;;;;;;11.57;5.83;;;;;;;0.19;100.00;97112.50;5051534;28;25043;-74
2022/02/27 07:35:10;;;;;;;14.10;5.68;;;;;;;0.24;100.00;97104.00;5051734;28;24423;-74
2022/02/27 07:37:37;;;;;;;11.82;5.28;;;;;;;0.40;100.00;97103.97;5051612;28;24990;-74
2022/02/27 07:40:05;;;;;;;8.38;5.40;;;;;;;0.57;100.00;97109.06;5051731;28;24465;-74
2022/02/27 07:42:31;;;;;;;10.55;5.55;;;;;;;0.83;100.00;97109.00;5051325;28;24431;-74
2022/02/27 07:44:58;;;;;;;9.57;5.82;;;;;;;0.84;100.00;97103.03;5051582;28;24476;-74
2022/02/27 07:47:26;;;;;;;13.38;5.38;;;;;;;0.90;100.00;97106.41;5051404;28;24450;-74
2022/02/27 07:49:52;;;;;;;11.43;5.70;;;;;;;1.12;100.00;97111.44;5051452;28;24431;-74
2022/02/27 07:52:19;;;;;;;8.50;5.72;;;;;;;1.15;100.00;97111.41;5051186;28;24443;-74
2022/02/27 07:54:45;;;;;;;11.57;5.50;;;;;;;1.37;100.00;97112.16;5051180;28;24434;-74
2022/02/27 07:57:12;;;;;;;11.77;5.57;;;;;;;1.53;100.00;97118.03;5051392;28;24481;-74
2022/02/27 07:59:38;;;;;;;8.27;5.50;;;;;;;1.76;100.00;97120.44;5051185;28;24431;-74
2022/02/27 08:02:05;;;;;;;8.27;4.83;;;;;;;1.88;100.00;97116.09;5051118;28;24809;-74
2022/02/27 08:04:33;;;;;;;12.25;5.90;;;;;;;2.02;100.00;97116.00;5051360;28;24485;-74
2022/02/27 08:07:01;;;;;;;8.98;5.90;;;;;;;2.17;100.00;97121.00;5051303;28;24473;-74
2022/02/27 08:09:28;;;;;;;18.27;6.15;;;;;;;2.28;100.00;97120.91;5050567;28;25318;-74
2022/02/27 08:11:54;;;;;;;10.93;6.50;;;;;;;2.30;100.00;97123.44;5051969;28;24426;-74
2022/02/27 08:14:20;;;;;;;13.13;6.60;;;;;;;2.26;100.00;97116.66;5050991;28;24431;-74
2022/02/27 08:16:47;;;;;;;9.23;5.85;;;;;;;2.13;100.00;97121.88;5050750;28;24486;-74
2022/02/27 08:19:13;;;;;;;14.82;6.38;;;;;;;2.17;100.00;97120.16;5050037;28;24492;-74
2022/02/27 08:21:41;;;;;;;8.18;6.28;;;;;;;2.21;100.00;97120.97;5050540;28;24442;-74
2022/02/27 08:24:08;;;;;;;16.67;6.27;;;;;;;2.20;100.00;97130.34;5050680;28;24914;-74
2022/02/27 08:26:36;;;;;;;12.27;6.57;;;;;;;2.01;100.00;97132.19;5050737;28;24423;-74
2022/02/27 08:29:04;;;;;;;11.73;6.93;;;;;;;2.22;100.00;97132.88;5050678;28;24502;-74
2022/02/27 08:31:31;;;;;;;11.50;6.80;;;;;;;2.35;100.00;97125.09;5050543;28;24438;-74
2022/02/27 08:33:58;;;;;;;11.23;6.68;;;;;;;2.33;100.00;97129.38;5050467;28;24435;-74
2022/02/27 08:36:24;;;;;;;12.52;6.38;;;;;;;2.31;98.61;97127.72;5050313;28;24415;-74
2022/02/27 08:38:52;;;;;;;13.73;6.87;;;;;;;2.56;98.60;97130.88;5050367;28;24438;-74
2022/02/27 08:41:19;;;;;;;13.20;6.45;;;;;;;2.69;100.00;97129.06;5052086;28;24426;-74
2022/02/27 08:43:46;;;;;;;13.60;6.60;;;;;;;2.62;95.26;97118.88;5054524;28;24423;-74
2022/02/27 08:46:12;;;;;;;9.70;5.80;;;;;;;2.73;97.22;97125.59;5054369;28;24418;-74
2022/02/27 08:48:39;;;;;;;11.98;6.63;;;;;;;2.65;94.47;97123.97;5054303;28;24831;-74
2022/02/27 08:51:06;;;;;;;8.52;5.90;;;;;;;2.62;94.03;97126.56;5054127;28;24469;-74
2022/02/27 08:53:32;;;;;;;10.10;6.03;;;;;;;2.67;96.51;97132.50;5054496;28;24801;-74
2022/02/27 08:56:00;;;;;;;9.90;5.68;;;;;;;2.84;92.94;97129.75;5054315;28;24820;-74
2022/02/27 08:58:27;;;;;;;8.13;5.40;;;;;;;2.91;93.37;97135.66;5053542;28;25021;-74
2022/02/27 09:00:54;;;;;;;11.93;6.15;;;;;;;2.97;92.30;97129.63;5054114;28;24423;-74
2022/02/27 09:03:24;;;;;;;12.95;6.35;;;;;;;3.15;93.42;97132.81;5053874;28;24801;-74
2022/02/27 09:05:51;;;;;;;9.88;5.65;;;;;;;3.28;91.44;97130.94;5053947;28;25033;-74
2022/02/27 09:08:17;;;;;;;11.63;5.85;;;;;;;3.39;90.10;97134.22;5053969;28;24430;-74
2022/02/27 09:10:44;;;;;;;9.00;5.20;;;;;;;3.63;90.96;97129.63;5053572;28;24435;-74
2022/02/27 09:13:12;;;;;;;10.27;5.05;;;;;;;3.56;85.97;97125.47;5053766;28;24447;-74
2022/02/27 09:15:39;;;;;;;8.88;5.47;;;;;;;3.75;88.83;97126.06;5053719;28;24438;-74
2022/02/27 09:18:06;;;;;;;9.77;5.20;;;;;;;3.88;87.95;97125.00;5053326;28;24547;-74
2022/02/27 09:20:32;;;;;;;7.30;5.30;;;;;;;4.08;85.89;97117.03;5053502;28;24435;-74
2022/02/27 09:22:59;;;;;;;7.25;4.50;;;;;;;4.20;86.49;97134.78;5053579;28;24490;-74
2022/02/27 09:25:25;;;;;;;8.15;4.55;;;;;;;4.27;84.10;97125.28;5053439;28;24443;-74
2022/02/27 09:27:52;;;;;;;10.38;4.78;;;;;;;4.17;78.92;97126.28;5053320;28;24465;-74
2022/02/27 09:30:20;;;;;;;9.15;4.82;;;;;;;4.17;81.23;97118.59;5053462;28;24839;-74
2022/02/27 09:32:46;;;;;;;8.88;4.93;;;;;;;3.91;83.56;97119.84;5053028;28;24446;-74
2022/02/27 09:35:13;;;;;;;9.52;4.93;;;;;;;4.07;79.18;97126.41;5053260;28;24952;-74
2022/02/27 09:37:39;;;;;;;13.13;4.82;;;;;;;4.32;77.60;97126.88;5053155;28;24437;-74
2022/02/27 09:40:07;;;;;;;9.05;5.05;;;;;;;4.30;78.03;97120.06;5053173;28;24432;-74
2022/02/27 09:42:35;;;;;;;6.80;4.80;;;;;;;4.33;82.26;97118.31;5053196;28;24426;-74
2022/02/27 09:45:03;;;;;;;7.13;5.07;;;;;;;4.27;80.85;97122.72;5052956;28;24832;-74
2022/02/27 09:47:31;;;;;;;8.07;4.65;;;;;;;4.22;79.88;97106.53;5052933;28;24450;-74
2022/02/27 09:49:58;;;;;;;7.53;4.22;;;;;;;4.32;78.29;97116.63;5053099;28;24434;-74
2022/02/27 09:52:24;;;;;;;7.60;4.57;;;;;;;4.53;74.96;97115.44;5052418;28;24437;-74
2022/02/27 09:54:50;;;;;;;6.72;4.65;;;;;;;4.71;79.68;97111.69;5052919;28;24407;-74
2022/02/27 09:57:18;;;;;;;11.70;4.70;;;;;;;4.82;74.05;97104.63;5052538;28;24499;-74
2022/02/27 09:59:45;;;;;;;7.33;4.13;;;;;;;4.82;75.80;97112.34;5052607;28;24458;-74
2022/02/27 10:02:13;;;;;;;5.93;3.97;;;;;;;5.05;79.01;97111.06;5052846;28;24553;-74
2022/02/27 10:04:42;;;;;;;9.00;3.92;;;;;;;4.85;74.06;97106.28;5053021;28;24419;-74
2022/02/27 10:07:10;;;;;;;5.95;3.92;;;;;;;4.64;73.18;97109.25;5052347;28;24823;-74
2022/02/27 10:09:37;;;;;;;5.50;3.40;;;;;;;4.78;69.20;97100.44;5052626;28;24446;-74
2022/02/27 10:12:19;;;;;;;7.93;3.35;;;;;;;4.98;71.71;97096.66;5052678;28;24429;-74
2022/02/27 10:14:57;;;;;;;6.65;3.20;;;;;;;5.03;68.88;97105.94;5052614;28;24839;-74
2022/02/27 10:17:32;;;;;;;3.92;2.38;;;;;;;5.01;63.87;97099.16;5052404;28;24427;-74
2022/02/27 10:20:01;;;;;;;5.45;2.78;;;;;;;5.31;65.85;97095.13;5052313;28;24792;-74
2022/02/27 10:22:32;;;;;;;5.88;2.65;;;;;;;5.20;65.04;97091.94;5052358;28;24442;-74
2022/02/27 10:24:59;;;;;;;3.88;2.42;;;;;;;5.03;66.36;97108.50;5052060;28;24435;-74
2022/02/27 10:27:39;;;;;;;3.45;2.13;;;;;;;5.13;65.40;97108.34;5052184;28;24435;-74
2022/02/27 10:30:14;;;;;;;2.95;1.90;;;;;;;4.98;63.38;97102.63;5052184;28;24434;-74
2022/02/27 10:32:46;;;;;;;4.22;2.33;;;;;;;5.22;60.33;97100.44;5052062;28;24431;-74
2022/02/27 10:35:33;;;;;;;4.30;2.33;;;;;;;5.22;60.14;97091.00;5051887;28;24516;-74
2022/02/27 10:37:59;;;;;;;3.40;2.13;;;;;;;5.17;59.16;97097.97;5051984;28;24427;-74
2022/02/27 10:40:33;;;;;;;3.67;2.20;;;;;;;4.90;58.51;97096.78;5052028;28;24423;-74
2022/02/27 10:43:00;;;;;;;11.40;2.70;;;;;;;5.04;59.73;97102.50;5052070;28;24434;-73
2022/02/27 10:45:27;;;;;;;6.27;2.60;;;;;;;5.31;60.47;97080.56;5051805;28;24539;-74
2022/02/27 10:48:02;;;;;;;4.97;2.20;;;;;;;5.19;60.41;97087.66;5051506;28;24835;-74
2022/02/27 10:50:30;;;;;;;4.13;2.73;;;;;;;5.25;57.15;97084.97;5051948;28;25001;-74
2022/02/27 10:52:56;;;;;;;7.65;2.80;;;;;;;5.30;57.29;97075.44;5051580;28;24979;-74
2022/02/27 10:55:23;;;;;;;6.45;3.08;;;;;;;5.54;58.71;97074.91;5051653;28;24438;-74
2022/02/27 10:57:51;;;;;;;5.50;2.78;;;;;;;5.75;57.12;97081.31;5051389;28;24427;-74
2022/02/27 11:00:20;;;;;;;5.65;2.42;;;;;;;5.74;61.74;97074.44;5051392;28;24443;-74
2022/02/27 11:02:48;;;;;;;8.38;2.83;;;;;;;5.88;62.62;97069.00;5051734;28;24450;-74
2022/02/27 11:05:16;;;;;;;7.43;2.70;;;;;;;5.76;61.97;97071.88;5050607;28;24464;-74
2022/02/27 11:07:46;;;;;;;4.63;2.50;;;;;;;5.24;62.99;97060.16;5051480;28;24418;-74
2022/02/27 11:10:14;;;;;;;3.97;2.58;;;;;;;5.22;63.18;97067.03;5051440;28;24423;-74
2022/02/27 11:12:41;;;;;;;7.30;3.10;;;;;;;5.34;64.19;97077.06;5051068;28;24422;-74
2022/02/27 11:15:09;;;;;;;4.60;2.70;;;;;;;5.45;64.53;97062.28;5051057;28;24450;-74
2022/02/27 11:17:36;;;;;;;10.40;2.92;;;;;;;5.45;64.17;97062.28;5051197;28;24435;-73
2022/02/27 11:20:06;;;;;;;3.90;2.90;;;;;;;5.65;63.38;97055.84;5051047;28;24435;-74
2022/02/27 11:22:33;;;;;;;13.10;3.30;;;;;;;5.57;59.12;97056.00;5051415;28;24454;-74
2022/02/27 11:25:03;;;;;;;3.50;2.45;;;;;;;5.38;60.33;97045.31;5051082;28;24469;-74
2022/02/27 11:27:30;;;;;;;3.97;2.28;;;;;;;5.58;59.81;97053.41;5050890;28;24423;-74